Terminal Aerodrome Forecast
Issued by NWS North Platte, NE

Home | Current Version | Previous Version | Text Only | Print | Product List | Glossary On
Versions: 1 2 3 4 5 6 7 8 9 10 11 12 13 14 15
000
FTUS43 KLBF 231100 CCA
TAFLBF
TAF COR
KLBF 231137Z 2312/2412 12008KT P6SM VCTS SCT090CB BKN200
      TEMPO 2313/2315 4SM -TSRA BKN060CB
     FM231600 13008G15KT P6SM SKC
     FM240100 13011KT P6SM SCT070
     FM240600 13011KT P6SM BKN200=

USA.gov is the U.S. government's official web portal to all federal, state and local government web resources and services.